Terminal Aerodrome Forecast
Issued by NWS Paducah, KY

Home | Current Version | Previous Version | Graphics & Text | Print | Product List | Glossary On
Versions: 1 2 3 4 5 6 7 8 9 10 11 12 13 14 15 16 17
000
FTUS43 KPAH 281600 AAA
TAFEVV
TAF AMD
KEVV 281617Z 2816/2912 32010KT P6SM BKN035
      TEMPO 2818/2821 33012G18KT SCT040
     FM282100 33010KT P6SM SCT040
     FM290100 35003KT P6SM SKC=

USA.gov is the U.S. government's official web portal to all federal, state and local government web resources and services.